createdAt,value
2023-11-23T00:02:24.136Z,8.53
2023-11-23T00:04:53.582Z,7.53
2023-11-23T00:07:25.033Z,8.47
2023-11-23T00:09:56.370Z,7.63
2023-11-23T00:12:26.194Z,8.43
2023-11-23T00:14:56.001Z,7.67
2023-11-23T00:17:25.727Z,8.03
2023-11-23T00:19:55.963Z,7.97
2023-11-23T00:22:25.840Z,8.27
2023-11-23T00:24:57.109Z,8.67
2023-11-23T00:27:27.419Z,10.67
2023-11-23T00:29:57.270Z,9.60
2023-11-23T00:32:26.934Z,9.90
2023-11-23T00:34:56.608Z,9.67
2023-11-23T00:37:26.557Z,10.10
2023-11-23T00:39:58.599Z,9.00
2023-11-23T00:42:30.332Z,11.07
2023-11-23T00:45:00.357Z,11.87
2023-11-23T00:47:30.108Z,10.10
2023-11-23T00:50:00.217Z,10.67
2023-11-23T00:52:30.065Z,11.70
2023-11-23T00:55:01.186Z,11.70
2023-11-23T00:57:32.320Z,10.57
2023-11-23T01:00:08.037Z,11.20
2023-11-23T01:02:40.022Z,11.30
2023-11-23T01:05:12.205Z,11.20
2023-11-23T01:07:42.107Z,10.37
2023-11-23T01:10:13.551Z,10.53
2023-11-23T01:12:44.399Z,10.87
2023-11-23T01:15:14.878Z,10.00
2023-11-23T01:17:44.983Z,9.47
2023-11-23T01:20:15.392Z,8.63
2023-11-23T01:22:45.490Z,8.50
2023-11-23T01:25:16.836Z,8.43
2023-11-23T01:27:46.446Z,8.87
2023-11-23T01:30:16.397Z,7.73
2023-11-23T01:32:46.756Z,8.90
2023-11-23T01:35:16.696Z,8.40
2023-11-23T01:37:46.406Z,8.53
2023-11-23T01:40:24.921Z,8.53
2023-11-23T01:42:55.451Z,8.60
2023-11-23T01:45:25.552Z,8.27
2023-11-23T01:47:55.543Z,7.53
2023-11-23T01:50:26.457Z,7.90
2023-11-23T01:52:56.342Z,7.03
2023-11-23T01:55:28.451Z,7.40
2023-11-23T01:58:00.967Z,6.43
2023-11-23T02:00:31.919Z,7.03
2023-11-23T02:03:02.484Z,6.53
2023-11-23T02:05:33.077Z,6.50
2023-11-23T02:08:02.684Z,7.43
2023-11-23T02:10:33.620Z,6.60
2023-11-23T02:13:04.568Z,7.00
2023-11-23T02:15:38.762Z,6.67
2023-11-23T02:18:10.136Z,6.20
2023-11-23T02:20:40.786Z,5.93
2023-11-23T02:23:10.569Z,6.27
2023-11-23T02:25:42.043Z,6.27
2023-11-23T02:28:12.238Z,6.73
2023-11-23T02:30:42.152Z,6.60
2023-11-23T02:33:12.685Z,6.90
2023-11-23T02:35:42.387Z,6.03
2023-11-23T02:38:12.709Z,6.70
2023-11-23T02:40:43.436Z,6.27
2023-11-23T02:43:13.553Z,6.23
2023-11-23T02:45:43.703Z,5.80
2023-11-23T02:48:13.585Z,6.03
2023-11-23T02:50:43.152Z,6.10
2023-11-23T02:53:29.210Z,5.93
2023-11-23T02:56:00.651Z,6.10
2023-11-23T02:58:30.967Z,6.33
2023-11-23T03:01:00.795Z,6.73
2023-11-23T03:03:31.395Z,6.33
2023-11-23T03:06:02.287Z,8.97
2023-11-23T03:08:32.263Z,6.77
2023-11-23T03:11:06.275Z,6.77
2023-11-23T03:13:36.209Z,6.70
2023-11-23T03:16:06.382Z,6.43
2023-11-23T03:18:36.288Z,6.63
2023-11-23T03:21:06.794Z,6.97
2023-11-23T03:23:36.578Z,6.50
2023-11-23T03:26:07.904Z,6.60
2023-11-23T03:28:37.532Z,6.23
2023-11-23T03:31:09.309Z,7.80
2023-11-23T03:33:38.896Z,7.27
2023-11-23T03:36:09.631Z,6.97
2023-11-23T03:38:40.344Z,7.63
2023-11-23T03:41:12.917Z,7.30
2023-11-23T03:43:42.655Z,7.37
2023-11-23T03:46:12.886Z,6.93
2023-11-23T03:48:43.925Z,7.00
2023-11-23T03:51:15.580Z,6.97
2023-11-23T03:53:45.718Z,7.67
2023-11-23T03:56:17.642Z,7.90
2023-11-23T03:58:49.289Z,7.40
2023-11-23T04:01:20.286Z,8.10
2023-11-23T04:03:50.187Z,8.80
2023-11-23T04:06:22.937Z,9.73
2023-11-23T04:08:52.801Z,8.67
2023-11-23T04:11:26.742Z,8.87
2023-11-23T04:13:58.145Z,8.47
2023-11-23T04:16:27.937Z,8.60
2023-11-23T04:18:57.733Z,8.80
2023-11-23T04:21:28.190Z,8.80
2023-11-23T04:24:00.798Z,8.20
2023-11-23T04:26:33.183Z,9.10
2023-11-23T04:29:02.772Z,9.90
2023-11-23T04:31:32.621Z,14.93
2023-11-23T04:34:02.998Z,21.37
2023-11-23T04:36:34.213Z,17.60
2023-11-23T04:39:04.118Z,15.33
2023-11-23T04:41:38.232Z,14.97
2023-11-23T04:44:07.814Z,16.00
2023-11-23T04:46:37.738Z,20.13
2023-11-23T04:49:07.446Z,17.90
2023-11-23T04:51:37.039Z,17.23
2023-11-23T04:54:07.298Z,16.07
2023-11-23T04:56:39.937Z,12.20
2023-11-23T04:59:09.547Z,10.67
2023-11-23T05:01:39.506Z,11.20
2023-11-23T05:04:09.715Z,10.97
2023-11-23T05:06:40.016Z,10.97
2023-11-23T05:09:10.069Z,11.33
2023-11-23T05:11:41.323Z,11.30
2023-11-23T05:14:11.271Z,9.33
2023-11-23T05:16:41.373Z,9.03
2023-11-23T05:19:11.119Z,10.60
2023-11-23T05:21:40.819Z,8.37
2023-11-23T05:24:11.309Z,8.50
2023-11-23T05:26:42.396Z,8.47
2023-11-23T05:29:12.501Z,9.70
2023-11-23T05:31:44.168Z,9.73
2023-11-23T05:34:13.873Z,12.60
2023-11-23T05:36:43.767Z,9.00
2023-11-23T05:39:14.500Z,10.97
2023-11-23T05:41:46.049Z,11.20
2023-11-23T05:44:15.993Z,12.23
2023-11-23T05:46:48.069Z,13.00
2023-11-23T05:49:22.646Z,11.10
2023-11-23T05:51:52.941Z,10.53
2023-11-23T05:54:23.142Z,14.00
2023-11-23T05:56:54.831Z,11.50
2023-11-23T05:59:24.583Z,11.10
2023-11-23T06:01:54.127Z,11.00
2023-11-23T06:04:24.090Z,11.60
2023-11-23T06:06:54.740Z,11.70
2023-11-23T06:09:24.460Z,11.40
2023-11-23T06:11:57.681Z,11.60
2023-11-23T06:14:27.244Z,11.40
2023-11-23T06:16:56.961Z,11.43
2023-11-23T06:19:29.222Z,11.37
2023-11-23T06:21:58.735Z,10.87
2023-11-23T06:24:28.568Z,10.77
2023-11-23T06:26:59.861Z,10.10
2023-11-23T06:29:29.907Z,10.03
2023-11-23T06:32:01.914Z,10.17
2023-11-23T06:34:33.302Z,11.50
2023-11-23T06:37:03.136Z,9.87
2023-11-23T06:39:33.086Z,9.17
2023-11-23T06:42:04.099Z,11.33
2023-11-23T06:44:33.889Z,10.73
2023-11-23T06:47:03.739Z,11.53
2023-11-23T06:49:33.639Z,9.77
2023-11-23T06:52:04.250Z,9.30
2023-11-23T06:54:34.508Z,8.40
2023-11-23T06:57:06.150Z,9.57
2023-11-23T06:59:37.295Z,7.77
2023-11-23T07:02:07.770Z,7.83
2023-11-23T07:04:38.203Z,8.90
2023-11-23T07:07:08.452Z,13.30
2023-11-23T07:09:42.589Z,12.50
2023-11-23T07:12:14.156Z,10.60
2023-11-23T07:14:51.430Z,11.53
2023-11-23T07:17:27.489Z,12.63
2023-11-23T07:20:00.353Z,11.60
2023-11-23T07:22:32.292Z,9.07
2023-11-23T07:25:04.271Z,10.17
2023-11-23T07:27:35.605Z,11.30
2023-11-23T07:30:07.536Z,10.20
2023-11-23T07:32:37.762Z,12.23
2023-11-23T07:35:08.522Z,8.77
2023-11-23T07:37:38.447Z,8.00
2023-11-23T07:40:15.044Z,9.13
2023-11-23T07:42:46.752Z,7.67
2023-11-23T07:45:18.253Z,8.17
2023-11-23T07:47:48.476Z,6.50
2023-11-23T07:50:18.258Z,6.30
2023-11-23T07:52:48.361Z,4.97
2023-11-23T07:55:21.052Z,6.20
2023-11-23T07:57:52.838Z,5.57
2023-11-23T08:00:25.797Z,5.60
2023-11-23T08:02:56.571Z,5.57
2023-11-23T08:05:27.352Z,7.23
2023-11-23T08:08:00.959Z,7.10
2023-11-23T08:10:30.874Z,6.13
2023-11-23T08:13:03.653Z,6.50
2023-11-23T08:15:34.193Z,6.33
2023-11-23T08:18:08.311Z,7.03
2023-11-23T08:20:39.356Z,7.53
2023-11-23T08:23:09.764Z,8.13
2023-11-23T08:25:41.216Z,7.80
2023-11-23T08:28:12.350Z,7.07
2023-11-23T08:30:42.102Z,7.23
2023-11-23T08:33:11.904Z,6.97
2023-11-23T08:35:42.094Z,7.50
2023-11-23T08:38:13.131Z,9.57
2023-11-23T08:40:43.158Z,6.67
2023-11-23T08:43:15.108Z,8.27
2023-11-23T08:45:45.234Z,7.23
2023-11-23T08:48:15.379Z,10.50
2023-11-23T08:50:45.163Z,9.50
2023-11-23T08:53:16.615Z,6.40
2023-11-23T08:55:49.809Z,6.50
2023-11-23T08:58:20.838Z,8.43
2023-11-23T09:00:50.661Z,8.20
2023-11-23T09:03:20.848Z,9.33
2023-11-23T09:05:50.933Z,7.30
2023-11-23T09:08:20.718Z,6.80
2023-11-23T09:10:50.417Z,6.23
2023-11-23T09:13:21.665Z,6.90
2023-11-23T09:15:51.374Z,7.17
2023-11-23T09:18:23.909Z,6.30
2023-11-23T09:20:54.084Z,8.60
2023-11-23T09:23:24.655Z,6.10
2023-11-23T09:25:54.302Z,6.70
2023-11-23T09:28:27.497Z,6.63
2023-11-23T09:30:57.430Z,8.87
2023-11-23T09:33:28.144Z,6.37
2023-11-23T09:35:58.281Z,7.47
2023-11-23T09:38:28.182Z,6.87
2023-11-23T09:41:01.781Z,9.97
2023-11-23T09:43:33.660Z,9.17
2023-11-23T09:46:04.841Z,9.80
2023-11-23T09:48:40.890Z,8.47
2023-11-23T09:51:12.409Z,6.23
2023-11-23T09:53:48.158Z,6.20
2023-11-23T09:56:19.496Z,9.10
2023-11-23T09:58:51.731Z,8.33
2023-11-23T10:01:22.013Z,7.50
2023-11-23T10:03:57.519Z,8.10
2023-11-23T10:06:27.302Z,8.23
2023-11-23T10:08:56.960Z,7.03
2023-11-23T10:11:29.834Z,7.93
2023-11-23T10:14:01.177Z,6.50
2023-11-23T10:16:35.299Z,7.37
2023-11-23T10:19:06.800Z,7.30
2023-11-23T10:21:36.589Z,7.10
2023-11-23T10:24:10.035Z,7.43
2023-11-23T10:26:39.694Z,7.77
2023-11-23T10:29:12.237Z,6.77
2023-11-23T10:31:41.954Z,6.23
2023-11-23T10:34:13.618Z,7.10
2023-11-23T10:36:45.359Z,8.47
2023-11-23T10:39:17.791Z,7.93
2023-11-23T10:41:48.170Z,7.23
2023-11-23T10:44:20.098Z,9.03
2023-11-23T10:46:52.041Z,7.57
2023-11-23T10:49:22.781Z,7.97
2023-11-23T10:51:53.329Z,6.70
2023-11-23T10:54:24.016Z,6.07
2023-11-23T10:56:56.471Z,5.83
2023-11-23T10:59:29.333Z,5.83
2023-11-23T11:02:00.488Z,5.97
2023-11-23T11:04:32.463Z,10.13
2023-11-23T11:07:05.442Z,6.27
2023-11-23T11:09:37.079Z,10.60
2023-11-23T11:12:14.582Z,6.87
2023-11-23T11:14:55.489Z,6.60
2023-11-23T11:17:38.163Z,7.73
2023-11-23T11:20:12.268Z,10.23
2023-11-23T11:22:42.490Z,6.40
2023-11-23T11:25:16.505Z,7.60
2023-11-23T11:27:47.272Z,6.50
2023-11-23T11:30:25.823Z,7.00
2023-11-23T11:32:55.682Z,6.77
2023-11-23T11:35:30.363Z,7.17
2023-11-23T11:38:02.136Z,7.83
2023-11-23T11:40:31.859Z,10.70
2023-11-23T11:43:01.763Z,6.60
2023-11-23T11:45:32.831Z,7.00
2023-11-23T11:48:03.880Z,8.50
2023-11-23T11:50:33.758Z,7.40
2023-11-23T11:53:03.776Z,8.43
2023-11-23T11:55:33.608Z,8.10
2023-11-23T11:58:07.614Z,8.27
2023-11-23T12:00:40.704Z,8.70
2023-11-23T12:03:10.602Z,7.43
2023-11-23T12:05:46.765Z,7.87
2023-11-23T12:08:16.889Z,8.47
2023-11-23T12:10:46.809Z,7.57
2023-11-23T12:13:26.566Z,7.30
2023-11-23T12:15:57.790Z,9.37
2023-11-23T12:18:36.815Z,9.13
2023-11-23T12:21:15.421Z,8.43
2023-11-23T12:23:46.688Z,8.23
2023-11-23T12:26:16.996Z,9.77
2023-11-23T12:28:49.790Z,7.83
2023-11-23T12:31:23.074Z,8.70
2023-11-23T12:33:52.853Z,10.85
2023-11-23T12:36:22.733Z,7.70
2023-11-23T12:38:52.855Z,9.73
2023-11-23T12:41:26.329Z,9.88
2023-11-23T12:44:05.271Z,7.88
2023-11-23T12:46:36.523Z,9.35
2023-11-23T12:49:06.615Z,8.45
2023-11-23T12:51:40.848Z,8.43
2023-11-23T12:54:10.674Z,7.00
2023-11-23T12:56:40.772Z,9.52
2023-11-23T12:59:10.573Z,8.13
2023-11-23T13:01:41.761Z,7.50
2023-11-23T13:04:11.805Z,9.15
2023-11-23T13:06:41.600Z,8.55
2023-11-23T13:09:17.392Z,10.10
2023-11-23T13:11:47.227Z,7.70
2023-11-23T13:14:17.635Z,8.52
2023-11-23T13:16:48.677Z,7.80
2023-11-23T13:19:29.185Z,8.18
2023-11-23T13:22:03.497Z,9.68
2023-11-23T13:24:35.836Z,8.38
2023-11-23T13:27:06.063Z,7.53
2023-11-23T13:29:36.774Z,9.52
2023-11-23T13:32:08.738Z,9.88
2023-11-23T13:34:39.998Z,8.73
2023-11-23T13:37:12.257Z,8.70
2023-11-23T13:39:42.263Z,9.35
2023-11-23T13:42:12.010Z,8.10
2023-11-23T13:44:41.804Z,8.80
2023-11-23T13:47:14.369Z,9.07
2023-11-23T13:49:44.383Z,10.50
2023-11-23T13:52:14.198Z,8.50
2023-11-23T13:54:45.191Z,7.97
2023-11-23T13:57:16.850Z,10.13
2023-11-23T13:59:46.708Z,8.23
2023-11-23T14:02:18.050Z,9.95
2023-11-23T14:04:48.379Z,9.55
2023-11-23T14:07:18.704Z,8.25
2023-11-23T14:09:48.719Z,8.98
2023-11-23T14:12:18.242Z,7.47
2023-11-23T14:14:49.595Z,8.18
2023-11-23T14:17:21.023Z,11.18
2023-11-23T14:19:52.868Z,9.88
2023-11-23T14:22:22.798Z,9.45
2023-11-23T14:24:52.504Z,8.63
2023-11-23T14:27:22.132Z,10.43
2023-11-23T14:29:52.037Z,12.73
2023-11-23T14:32:23.883Z,14.43
2023-11-23T14:34:54.006Z,8.00
2023-11-23T14:37:24.540Z,9.27
2023-11-23T14:39:54.039Z,12.02
2023-11-23T14:42:24.217Z,8.63
2023-11-23T14:44:55.404Z,10.68
2023-11-23T14:47:28.995Z,8.52
2023-11-23T14:49:58.740Z,9.63
2023-11-23T14:52:28.526Z,9.10
2023-11-23T14:54:58.467Z,10.27
2023-11-23T14:57:30.331Z,10.07
2023-11-23T15:00:01.664Z,9.95
2023-11-23T15:02:33.128Z,9.35
2023-11-23T15:05:02.814Z,10.20
2023-11-23T15:07:32.422Z,10.60
2023-11-23T15:10:03.999Z,10.05
2023-11-23T15:12:33.720Z,9.63
2023-11-23T15:15:03.408Z,10.77
2023-11-23T15:17:34.522Z,11.98
2023-11-23T15:20:07.126Z,11.88
2023-11-23T15:22:37.036Z,11.52
2023-11-23T15:25:10.293Z,16.40
2023-11-23T15:27:41.480Z,18.15
2023-11-23T15:30:13.019Z,19.45
2023-11-23T15:32:44.280Z,23.53
2023-11-23T15:35:14.324Z,29.17
2023-11-23T15:37:44.212Z,25.77
2023-11-23T15:40:18.383Z,23.90
2023-11-23T15:42:49.337Z,21.43
2023-11-23T15:45:19.487Z,24.73
2023-11-23T15:47:50.575Z,27.67
2023-11-23T15:50:23.319Z,23.90
2023-11-23T15:52:56.056Z,30.07
2023-11-23T15:55:26.666Z,26.50
2023-11-23T15:57:56.188Z,34.30
2023-11-23T16:00:26.639Z,29.27
2023-11-23T16:02:59.009Z,30.83
2023-11-23T16:05:30.958Z,26.57
2023-11-23T16:08:00.817Z,28.47
2023-11-23T16:10:30.274Z,27.63
2023-11-23T16:12:59.671Z,25.57
2023-11-23T16:15:29.214Z,24.50
2023-11-23T16:18:00.463Z,24.63
2023-11-23T16:20:30.336Z,20.37
2023-11-23T16:23:00.285Z,25.60
2023-11-23T16:25:30.366Z,23.60
2023-11-23T16:27:59.980Z,26.93
2023-11-23T16:30:29.935Z,29.20
2023-11-23T16:33:03.228Z,32.23
2023-11-23T16:35:33.415Z,26.60
2023-11-23T16:40:59.445Z,27.10
2023-11-23T16:43:29.208Z,27.53
2023-11-23T16:46:05.004Z,25.87
2023-11-23T16:48:45.719Z,24.33
2023-11-23T16:51:19.417Z,28.10
2023-11-23T16:53:51.499Z,25.80
2023-11-23T16:56:22.535Z,27.30
2023-11-23T16:58:53.358Z,29.10
2023-11-23T17:01:24.006Z,24.63
2023-11-23T17:03:56.891Z,24.00
2023-11-23T17:06:27.402Z,30.40
2023-11-23T17:08:57.178Z,35.27
2023-11-23T17:11:27.311Z,38.17
2023-11-23T17:13:57.427Z,35.90
2023-11-23T17:16:27.175Z,33.33
2023-11-23T17:19:10.147Z,37.57
2023-11-23T17:21:49.348Z,36.57
2023-11-23T17:24:24.892Z,40.80
2023-11-23T17:26:56.453Z,45.40
2023-11-23T17:29:26.526Z,44.23
2023-11-23T17:31:58.949Z,38.30
2023-11-23T17:34:30.248Z,36.63
2023-11-23T17:37:00.635Z,35.37
2023-11-23T17:39:31.542Z,46.97
2023-11-23T17:42:01.208Z,41.30
2023-11-23T17:44:30.901Z,44.87
2023-11-23T17:47:01.320Z,36.73
2023-11-23T17:49:32.466Z,29.70
2023-11-23T17:52:03.294Z,27.20
2023-11-23T17:54:33.864Z,29.23
2023-11-23T17:57:05.954Z,27.23
2023-11-23T17:59:46.955Z,35.87
2023-11-23T18:02:22.502Z,29.13
2023-11-23T18:05:01.335Z,34.10
2023-11-23T18:07:31.355Z,38.57
2023-11-23T18:10:01.058Z,42.73
2023-11-23T18:12:30.911Z,36.63
2023-11-23T18:15:00.789Z,40.43
2023-11-23T18:17:31.054Z,42.57
2023-11-23T18:20:02.482Z,38.23
2023-11-23T18:22:33.235Z,40.40
2023-11-23T18:25:03.531Z,38.33
2023-11-23T18:27:33.115Z,45.20
2023-11-23T18:30:02.630Z,38.53
2023-11-23T18:32:33.454Z,39.10
2023-11-23T18:35:04.725Z,34.20
2023-11-23T18:37:34.532Z,39.77
2023-11-23T18:40:14.610Z,37.53
2023-11-23T18:42:47.381Z,41.70
2023-11-23T18:45:17.926Z,33.57
2023-11-23T18:47:48.205Z,34.13
2023-11-23T18:50:19.588Z,34.67
2023-11-23T18:52:49.468Z,36.97
2023-11-23T18:55:35.255Z,34.80
2023-11-23T18:58:18.302Z,41.97
2023-11-23T19:00:55.348Z,42.40
2023-11-23T19:03:28.562Z,38.73
2023-11-23T19:06:25.512Z,35.47
2023-11-23T19:09:16.882Z,44.13
2023-11-23T19:11:47.645Z,48.10
2023-11-23T19:14:17.325Z,45.60
2023-11-23T19:17:11.544Z,49.80
2023-11-23T19:19:41.665Z,44.17
2023-11-23T19:22:13.542Z,44.13
2023-11-23T19:24:43.934Z,40.43
2023-11-23T19:27:14.311Z,40.13
2023-11-23T19:29:48.134Z,38.10
2023-11-23T19:32:30.892Z,41.10
2023-11-23T19:35:01.329Z,38.87
2023-11-23T19:37:36.146Z,33.83
2023-11-23T19:40:07.639Z,39.77
2023-11-23T19:42:39.746Z,36.77
2023-11-23T19:45:12.033Z,37.60
2023-11-23T19:47:42.281Z,49.47
2023-11-23T19:50:13.099Z,49.40
2023-11-23T19:52:45.580Z,38.87
2023-11-23T19:55:15.995Z,36.30
2023-11-23T19:57:45.677Z,35.33
2023-11-23T20:00:16.422Z,34.30
2023-11-23T20:02:47.162Z,28.33
2023-11-23T20:05:18.625Z,28.03
2023-11-23T20:07:49.580Z,26.03
2023-11-23T20:10:23.065Z,32.10
2023-11-23T20:12:52.978Z,34.40
2023-11-23T20:15:23.333Z,35.67
2023-11-23T20:17:53.301Z,59.93
2023-11-23T20:20:22.821Z,56.40
2023-11-23T20:22:54.479Z,39.93
2023-11-23T20:25:25.712Z,30.03
2023-11-23T20:27:55.574Z,34.37
2023-11-23T20:30:26.637Z,40.67
2023-11-23T20:32:56.536Z,24.30
2023-11-23T20:35:29.470Z,24.23
2023-11-23T20:38:01.256Z,24.70
2023-11-23T20:40:32.062Z,27.93
2023-11-23T20:43:03.925Z,27.23
2023-11-23T20:45:36.541Z,24.63
2023-11-23T20:48:06.477Z,24.77
2023-11-23T20:50:36.240Z,23.17
2023-11-23T20:53:10.042Z,20.80
2023-11-23T20:55:40.554Z,19.73
2023-11-23T20:58:10.544Z,17.27
2023-11-23T21:00:40.719Z,19.03
2023-11-23T21:03:11.366Z,16.90
2023-11-23T21:05:41.958Z,17.77
2023-11-23T21:08:14.433Z,16.80
2023-11-23T21:10:45.515Z,20.43
2023-11-23T21:13:17.029Z,19.83
2023-11-23T21:15:46.747Z,19.13
2023-11-23T21:18:16.949Z,19.63
2023-11-23T21:20:46.965Z,18.57
2023-11-23T21:23:18.427Z,17.30
2023-11-23T21:25:48.388Z,18.00
2023-11-23T21:28:17.937Z,17.67
2023-11-23T21:30:48.782Z,18.53
2023-11-23T21:33:19.521Z,18.37
2023-11-23T21:35:49.429Z,19.63
2023-11-23T21:38:20.428Z,18.63
2023-11-23T21:40:53.045Z,24.03
2023-11-23T21:43:22.863Z,27.03
2023-11-23T21:45:53.133Z,24.00
2023-11-23T21:48:22.649Z,25.07
2023-11-23T21:50:54.150Z,32.93
2023-11-23T21:53:26.403Z,26.30
2023-11-23T21:55:57.343Z,27.17
2023-11-23T21:58:27.441Z,31.90
2023-11-23T22:00:57.039Z,44.77
2023-11-23T22:03:29.435Z,42.73
2023-11-23T22:05:59.864Z,34.70
2023-11-23T22:08:31.615Z,38.50
2023-11-23T22:11:02.461Z,30.83
2023-11-23T22:13:32.276Z,20.17
2023-11-23T22:16:03.222Z,26.77
2023-11-23T22:18:33.465Z,21.00
2023-11-23T22:21:05.812Z,18.67
2023-11-23T22:23:39.189Z,19.30
2023-11-23T22:26:09.772Z,21.43
2023-11-23T22:28:40.161Z,20.23
2023-11-23T22:31:14.652Z,22.83
2023-11-23T22:33:47.817Z,20.63
2023-11-23T22:36:20.263Z,19.50
2023-11-23T22:38:55.883Z,20.23
2023-11-23T22:41:29.801Z,21.87
2023-11-23T22:44:01.364Z,20.17
2023-11-23T22:46:33.520Z,24.67
2023-11-23T22:49:03.073Z,25.63
2023-11-23T22:51:33.289Z,24.30
2023-11-23T22:54:06.476Z,24.50
2023-11-23T22:56:36.752Z,22.97
2023-11-23T22:59:06.430Z,21.87
2023-11-23T23:01:39.031Z,22.87
2023-11-23T23:04:12.014Z,24.73
2023-11-23T23:06:43.723Z,25.10
2023-11-23T23:09:17.349Z,24.17
2023-11-23T23:11:50.881Z,23.27
2023-11-23T23:14:20.897Z,26.20
2023-11-23T23:16:51.886Z,22.70
2023-11-23T23:19:21.769Z,21.77
2023-11-23T23:21:52.624Z,21.47
2023-11-23T23:24:23.971Z,19.03
2023-11-23T23:26:54.466Z,19.43
2023-11-23T23:29:27.160Z,18.90
2023-11-23T23:31:57.566Z,19.27
2023-11-23T23:34:29.161Z,18.73
2023-11-23T23:36:59.269Z,22.47
2023-11-23T23:39:31.506Z,17.13
2023-11-23T23:42:01.620Z,18.37
2023-11-23T23:44:34.409Z,17.30
2023-11-23T23:47:05.690Z,18.50
2023-11-23T23:49:36.192Z,21.73
2023-11-23T23:52:08.388Z,21.90
2023-11-23T23:54:40.683Z,22.40
2023-11-23T23:57:11.871Z,27.00
2023-11-23T23:59:41.999Z,19.77
